LIRP/PSA METAR and TAF weather

Enter ICAO airport designator
Station Type Date Time Source
LIRP METAR 2022/06/28 15:45 UTC NOAA

LIRP 281545Z 15011KT CAVOK 29/17 Q1008 NOSIG


Station Type Date Time Source
LIRP Decoded METAR 2022/06/28 15:45 UTC NOAA

Pisa / S. Giusto, Italy (LIRP) 43-41N 010-23E 6M
Jun 28, 2022 - 11:45 AM EDT / 2022.06.28 1545 UTC
Wind: from the SSE (150 degrees) at 13 MPH (11 KT):0
Visibility: greater than 7 mile(s):0
Temperature: 84 F (29 C)
Dew Point: 62 F (17 C)
Relative Humidity: 48%
Pressure (altimeter): 29.77 in. Hg (1008 hPa)
ob: LIRP 281545Z 15011KT CAVOK 29/17 Q1008 NOSIG
cycle: 16

Station Type Date Time Source
LIRP TAF 2022/06/28 12:21 UTC NOAA

TAF LIRP 281100Z 2812/2912 08010KT 9999 RA SCT045 SCT070
TEMPO 2815/2902 VRB05G15KT 5000 TSRA FEW015CB SCT030
BECMG 2902/2904 25010KT 3000 RA BR BKN015 SCT025

Example: see airport list